Current Weather

Joliet Rgnl

Joliet, Illinois (KJOT)

Report from: Monday, June 24, 2024 3:55 PM CDT
Current time: Tuesday, June 25, 2024 4:08 AM CDT

Nearby weather – Weather history – Daily summaries
Weather forecast

Temperature31.0°C (87.8°F)
Heat index32.7°C (90.9°F)
Dew point19.5°C (67.1°F)
Winds 7 kts (3.6 m/s, 8.1 mph) South (170°)
Visibility10 mi. (16.1 km)
Clouds Scattered clouds 6,000 ft. (1,829 m)
Scattered clouds 8,000 ft. (2,438 m)
Altimeter29.93 in.Hg (1014 mB)
Relative humidity51 %
Density altitude2,128 ft. (649 m)
Remarks Fully automated report
Automated weather observing station with precipitation discriminator
Flight conditions Visual Meteorological Conditions
Raw dataKJOT 242055Z AUTO 17007KT 10SM SCT060 SCT080 31/20 A2993 RMK AO2 T03100195
An unhandled exception has occurred. See browser dev tools for details. Reload 🗙